createdAt,value
2018-09-14T00:00:18.704Z,1016.91
2018-09-14T00:01:18.703Z,1016.91
2018-09-14T00:02:18.697Z,1016.90
2018-09-14T00:03:18.690Z,1016.90
2018-09-14T00:04:18.685Z,1016.87
2018-09-14T00:05:18.674Z,1016.87
2018-09-14T00:06:18.673Z,1016.88
2018-09-14T00:07:18.667Z,1016.83
2018-09-14T00:08:18.663Z,1016.84
2018-09-14T00:09:18.651Z,1016.82
2018-09-14T00:10:18.645Z,1016.80
2018-09-14T00:11:18.637Z,1016.86
2018-09-14T00:12:18.633Z,1016.77
2018-09-14T00:13:18.631Z,1016.81
2018-09-14T00:14:18.624Z,1016.83
2018-09-14T00:15:18.619Z,1016.83
2018-09-14T00:16:18.616Z,1016.86
2018-09-14T00:17:18.601Z,1016.87
2018-09-14T00:18:18.596Z,1016.86
2018-09-14T00:19:18.590Z,1016.87
2018-09-14T00:20:18.583Z,1016.82
2018-09-14T00:21:18.581Z,1016.87
2018-09-14T00:22:18.579Z,1016.84
2018-09-14T00:23:18.564Z,1016.84
2018-09-14T00:24:18.561Z,1016.82
2018-09-14T00:25:18.558Z,1016.80
2018-09-14T00:26:18.557Z,1016.78
2018-09-14T00:27:18.546Z,1016.82
2018-09-14T00:28:18.540Z,1016.76
2018-09-14T00:29:18.532Z,1016.81
2018-09-14T00:30:18.522Z,1016.75
2018-09-14T00:31:18.516Z,1016.77
2018-09-14T00:32:18.510Z,1016.72
2018-09-14T00:33:18.509Z,1016.74
2018-09-14T00:34:18.503Z,1016.69
2018-09-14T00:35:18.496Z,1016.74
2018-09-14T00:36:18.489Z,1016.68
2018-09-14T00:37:18.481Z,1016.71
2018-09-14T00:38:18.473Z,1016.68
2018-09-14T00:39:18.471Z,1016.67
2018-09-14T00:40:18.465Z,1016.64
2018-09-14T00:41:18.454Z,1016.67
2018-09-14T00:42:18.448Z,1016.65
2018-09-14T00:43:18.443Z,1016.66
2018-09-14T00:44:18.436Z,1016.69
2018-09-14T00:45:18.448Z,1016.65
2018-09-14T00:46:18.429Z,1016.65
2018-09-14T00:47:18.423Z,1016.63
2018-09-14T00:48:18.416Z,1016.64
2018-09-14T00:49:18.406Z,1016.63
2018-09-14T00:50:18.398Z,1016.60
2018-09-14T00:51:18.392Z,1016.61
2018-09-14T00:52:18.386Z,1016.63
2018-09-14T00:53:18.384Z,1016.62
2018-09-14T00:54:18.378Z,1016.64
2018-09-14T00:55:18.375Z,1016.64
2018-09-14T00:56:18.362Z,1016.67
2018-09-14T00:57:18.358Z,1016.67
2018-09-14T00:58:18.353Z,1016.63
2018-09-14T00:59:18.348Z,1016.67
2018-09-14T01:00:18.342Z,1016.62
2018-09-14T01:01:18.330Z,1016.63
2018-09-14T01:02:18.324Z,1016.61
2018-09-14T01:03:18.320Z,1016.69
2018-09-14T01:04:18.314Z,1016.65
2018-09-14T01:05:18.309Z,1016.64
2018-09-14T01:06:18.304Z,1016.68
2018-09-14T01:07:18.296Z,1016.64
2018-09-14T01:08:18.293Z,1016.66
2018-09-14T01:09:18.281Z,1016.63
2018-09-14T01:10:18.275Z,1016.64
2018-09-14T01:11:18.271Z,1016.65
2018-09-14T01:12:18.266Z,1016.60
2018-09-14T01:13:18.253Z,1016.59
2018-09-14T01:14:18.249Z,1016.64
2018-09-14T01:15:18.251Z,1016.62
2018-09-14T01:16:18.236Z,1016.59
2018-09-14T01:17:18.273Z,1016.58
2018-09-14T01:18:18.227Z,1016.59
2018-09-14T01:19:18.222Z,1016.58
2018-09-14T01:20:18.333Z,1016.58
2018-09-14T01:21:18.206Z,1016.53
2018-09-14T01:22:18.198Z,1016.55
2018-09-14T01:23:18.191Z,1016.53
2018-09-14T01:24:18.183Z,1016.58
2018-09-14T01:25:18.181Z,1016.53
2018-09-14T01:26:18.174Z,1016.62
2018-09-14T01:27:18.163Z,1016.58
2018-09-14T01:28:18.158Z,1016.57
2018-09-14T01:29:18.158Z,1016.53
2018-09-14T01:30:18.152Z,1016.49
2018-09-14T01:31:18.142Z,1016.47
2018-09-14T01:32:18.136Z,1016.47
2018-09-14T01:33:18.125Z,1016.48
2018-09-14T01:34:18.118Z,1016.51
2018-09-14T01:35:18.112Z,1016.50
2018-09-14T01:36:18.105Z,1016.49
2018-09-14T01:37:18.103Z,1016.51
2018-09-14T01:38:18.097Z,1016.50
2018-09-14T01:39:18.090Z,1016.48
2018-09-14T01:40:18.083Z,1016.49
2018-09-14T01:41:18.072Z,1016.47
2018-09-14T01:42:18.064Z,1016.47
2018-09-14T01:43:18.065Z,1016.45
2018-09-14T01:44:18.056Z,1016.42
2018-09-14T01:45:18.046Z,1016.43
2018-09-14T01:46:18.040Z,1016.45
2018-09-14T01:47:18.033Z,1016.44
2018-09-14T01:48:18.027Z,1016.47
2018-09-14T01:49:18.024Z,1016.46
2018-09-14T01:50:18.017Z,1016.46
2018-09-14T01:51:18.012Z,1016.49
2018-09-14T01:52:18.006Z,1016.47
2018-09-14T01:53:17.999Z,1016.43
2018-09-14T01:54:17.986Z,1016.49
2018-09-14T01:55:17.981Z,1016.45
2018-09-14T01:56:17.974Z,1016.49
2018-09-14T01:57:17.973Z,1016.46
2018-09-14T01:58:17.967Z,1016.40
2018-09-14T01:59:17.954Z,1016.46
2018-09-14T02:00:17.948Z,1016.44
2018-09-14T02:01:17.947Z,1016.44
2018-09-14T02:02:17.939Z,1016.42
2018-09-14T02:03:17.969Z,1016.42
2018-09-14T02:04:17.926Z,1016.45
2018-09-14T02:05:17.914Z,1016.44
2018-09-14T02:06:17.907Z,1016.48
2018-09-14T02:07:17.901Z,1016.41
2018-09-14T02:08:17.894Z,1016.44
2018-09-14T02:09:17.893Z,1016.45
2018-09-14T02:10:17.885Z,1016.43
2018-09-14T02:11:17.878Z,1016.41
2018-09-14T02:12:17.871Z,1016.41
2018-09-14T02:13:17.860Z,1016.41
2018-09-14T02:14:17.853Z,1016.43
2018-09-14T02:15:17.851Z,1016.40
2018-09-14T02:16:17.844Z,1016.43
2018-09-14T02:17:17.834Z,1016.45
2018-09-14T02:18:17.826Z,1016.43
2018-09-14T02:19:17.820Z,1016.42
2018-09-14T02:20:17.816Z,1016.44
2018-09-14T02:21:17.810Z,1016.44
2018-09-14T02:22:17.805Z,1016.42
2018-09-14T02:23:17.797Z,1016.40
2018-09-14T02:24:17.790Z,1016.40
2018-09-14T02:25:17.779Z,1016.37
2018-09-14T02:26:17.771Z,1016.42
2018-09-14T02:27:17.765Z,1016.39
2018-09-14T02:28:17.759Z,1016.41
2018-09-14T02:29:17.758Z,1016.37
2018-09-14T02:30:17.752Z,1016.40
2018-09-14T02:31:17.740Z,1016.32
2018-09-14T02:32:17.733Z,1016.34
2018-09-14T02:33:17.728Z,1016.40
2018-09-14T02:34:17.722Z,1016.33
2018-09-14T02:35:17.716Z,1016.35
2018-09-14T02:36:17.711Z,1016.38
2018-09-14T02:37:17.696Z,1016.32
2018-09-14T02:38:17.689Z,1016.41
2018-09-14T02:39:17.683Z,1016.42
2018-09-14T02:40:17.679Z,1016.33
2018-09-14T02:41:17.672Z,1016.36
2018-09-14T02:42:17.666Z,1016.35
2018-09-14T02:43:17.660Z,1016.37
2018-09-14T02:44:17.653Z,1016.33
2018-09-14T02:45:17.640Z,1016.35
2018-09-14T02:46:17.633Z,1016.30
2018-09-14T02:47:17.631Z,1016.30
2018-09-14T02:48:17.625Z,1016.31
2018-09-14T02:49:17.613Z,1016.24
2018-09-14T02:50:17.607Z,1016.27
2018-09-14T02:51:17.598Z,1016.27
2018-09-14T02:52:17.606Z,1016.25
2018-09-14T02:53:17.590Z,1016.31
2018-09-14T02:54:17.584Z,1016.24
2018-09-14T02:55:17.575Z,1016.24
2018-09-14T02:56:17.568Z,1016.23
2018-09-14T02:57:17.556Z,1016.21
2018-09-14T02:58:17.550Z,1016.19
2018-09-14T02:59:17.542Z,1016.23
2018-09-14T03:00:17.643Z,1016.20
2018-09-14T03:01:17.535Z,1016.24
2018-09-14T03:02:17.527Z,1016.26
2018-09-14T03:03:17.516Z,1016.24
2018-09-14T03:04:17.509Z,1016.23
2018-09-14T03:05:17.506Z,1016.24
2018-09-14T03:06:17.499Z,1016.20
2018-09-14T03:07:17.490Z,1016.20
2018-09-14T03:08:17.484Z,1016.23
2018-09-14T03:09:17.472Z,1016.25
2018-09-14T03:10:17.464Z,1016.20
2018-09-14T03:11:17.459Z,1016.18
2018-09-14T03:12:17.452Z,1016.22
2018-09-14T03:13:17.448Z,1016.21
2018-09-14T03:14:17.442Z,1016.16
2018-09-14T03:15:17.440Z,1016.15
2018-09-14T03:16:17.429Z,1016.22
2018-09-14T03:17:17.416Z,1016.20
2018-09-14T03:18:17.411Z,1016.21
2018-09-14T03:19:17.406Z,1016.17
2018-09-14T03:20:17.399Z,1016.16
2018-09-14T03:21:17.389Z,1016.19
2018-09-14T03:22:17.379Z,1016.19
2018-09-14T03:23:17.374Z,1016.20
2018-09-14T03:24:17.366Z,1016.16
2018-09-14T03:25:17.362Z,1016.18
2018-09-14T03:26:17.357Z,1016.16
2018-09-14T03:27:17.349Z,1016.15
2018-09-14T03:28:17.344Z,1016.14
2018-09-14T03:29:17.331Z,1016.19
2018-09-14T03:30:17.324Z,1016.18
2018-09-14T03:31:17.316Z,1016.21
2018-09-14T03:32:17.420Z,1016.24
2018-09-14T03:33:17.307Z,1016.20
2018-09-14T03:34:17.298Z,1016.21
2018-09-14T03:35:17.287Z,1016.16
2018-09-14T03:36:17.281Z,1016.17
2018-09-14T03:37:17.278Z,1016.18
2018-09-14T03:38:17.270Z,1016.23
2018-09-14T03:39:17.350Z,1016.20
2018-09-14T03:40:17.257Z,1016.24
2018-09-14T03:41:17.245Z,1016.22
2018-09-14T03:42:17.237Z,1016.17
2018-09-14T03:43:17.230Z,1016.23
2018-09-14T03:44:17.224Z,1016.25
2018-09-14T03:45:17.220Z,1016.21
2018-09-14T03:46:17.229Z,1016.17
2018-09-14T03:47:17.206Z,1016.17
2018-09-14T03:48:17.200Z,1016.19
2018-09-14T03:49:17.185Z,1016.23
2018-09-14T03:50:17.180Z,1016.21
2018-09-14T03:51:17.176Z,1016.17
2018-09-14T03:52:17.170Z,1016.21
2018-09-14T03:53:17.157Z,1016.19
2018-09-14T03:54:17.151Z,1016.15
2018-09-14T03:55:17.144Z,1016.19
2018-09-14T03:56:17.141Z,1016.17
2018-09-14T03:57:17.141Z,1016.16
2018-09-14T03:58:17.127Z,1016.22
2018-09-14T03:59:17.120Z,1016.12
2018-09-14T04:00:17.112Z,1016.18
2018-09-14T04:01:17.103Z,1016.24
2018-09-14T04:02:17.094Z,1016.21
2018-09-14T04:03:17.088Z,1016.14
2018-09-14T04:04:17.078Z,1016.17
2018-09-14T04:05:17.075Z,1016.19
2018-09-14T04:06:17.068Z,1016.18
2018-09-14T04:07:17.056Z,1016.13
2018-09-14T04:08:17.048Z,1016.20
2018-09-14T04:09:17.046Z,1016.18
2018-09-14T04:10:17.041Z,1016.16
2018-09-14T04:11:17.033Z,1016.17
2018-09-14T04:12:17.026Z,1016.18
2018-09-14T04:13:17.022Z,1016.21
2018-09-14T04:14:17.006Z,1016.21
2018-09-14T04:15:16.999Z,1016.14
2018-09-14T04:16:16.992Z,1016.18
2018-09-14T04:17:16.989Z,1016.17
2018-09-14T04:18:16.981Z,1016.17
2018-09-14T04:19:16.972Z,1016.17
2018-09-14T04:20:16.974Z,1016.14
2018-09-14T04:21:16.957Z,1016.20
2018-09-14T04:22:16.949Z,1016.21
2018-09-14T04:23:16.944Z,1016.18
2018-09-14T04:24:16.950Z,1016.17
2018-09-14T04:25:16.925Z,1016.19
2018-09-14T04:26:16.917Z,1016.21
2018-09-14T04:27:16.911Z,1016.22
2018-09-14T04:28:16.905Z,1016.19
2018-09-14T04:29:16.901Z,1016.16
2018-09-14T04:30:16.893Z,1016.23
2018-09-14T04:31:16.885Z,1016.20
2018-09-14T04:32:16.879Z,1016.14
2018-09-14T04:33:16.874Z,1016.19
2018-09-14T04:34:16.860Z,1016.17
2018-09-14T04:35:16.853Z,1016.17
2018-09-14T04:36:16.846Z,1016.22
2018-09-14T04:37:16.843Z,1016.22
2018-09-14T04:38:16.948Z,1016.26
2018-09-14T04:39:16.825Z,1016.20
2018-09-14T04:40:16.817Z,1016.16
2018-09-14T04:41:16.814Z,1016.17
2018-09-14T04:42:16.806Z,1016.09
2018-09-14T04:43:16.798Z,1016.17
2018-09-14T04:44:16.791Z,1016.14
2018-09-14T04:45:16.779Z,1016.10
2018-09-14T04:46:16.772Z,1016.07
2018-09-14T04:47:16.767Z,1016.08
2018-09-14T04:48:16.769Z,1016.11
2018-09-14T04:49:16.754Z,1016.11
2018-09-14T04:50:16.746Z,1016.09
2018-09-14T04:51:16.762Z,1016.19
2018-09-14T04:52:16.733Z,1016.11
2018-09-14T04:53:16.725Z,1016.13
2018-09-14T04:54:16.713Z,1016.10
2018-09-14T04:55:16.711Z,1016.12
2018-09-14T04:56:16.706Z,1016.12
2018-09-14T04:57:16.711Z,1016.13
2018-09-14T04:58:16.684Z,1016.21
2018-09-14T04:59:16.678Z,1016.20
2018-09-14T05:00:16.670Z,1016.19
2018-09-14T05:01:16.667Z,1016.21
2018-09-14T05:02:16.659Z,1016.20
2018-09-14T05:03:16.731Z,1016.22
2018-09-14T05:04:16.644Z,1016.21
2018-09-14T05:05:16.633Z,1016.21
2018-09-14T05:06:16.624Z,1016.19
2018-09-14T05:07:16.619Z,1016.18
2018-09-14T05:08:16.612Z,1016.20
2018-09-14T05:09:16.608Z,1016.21
2018-09-14T05:10:16.601Z,1016.20
2018-09-14T05:11:16.590Z,1016.25
2018-09-14T05:12:16.582Z,1016.25
2018-09-14T05:13:16.578Z,1016.26
2018-09-14T05:14:16.616Z,1016.24
2018-09-14T05:15:16.564Z,1016.25
2018-09-14T05:16:16.560Z,1016.25
2018-09-14T05:17:16.543Z,1016.27
2018-09-14T05:18:16.540Z,1016.32
2018-09-14T05:19:16.530Z,1016.30
2018-09-14T05:20:16.523Z,1016.33
2018-09-14T05:21:16.520Z,1016.30
2018-09-14T05:22:16.512Z,1016.24
2018-09-14T05:23:16.505Z,1016.29
2018-09-14T05:24:16.592Z,1016.28
2018-09-14T05:25:16.485Z,1016.28
2018-09-14T05:26:16.479Z,1016.30
2018-09-14T05:27:16.476Z,1016.33
2018-09-14T05:28:16.470Z,1016.28
2018-09-14T05:29:16.455Z,1016.34
2018-09-14T05:30:16.450Z,1016.34
2018-09-14T05:31:16.441Z,1016.32
2018-09-14T05:32:16.436Z,1016.38
2018-09-14T05:33:16.432Z,1016.41
2018-09-14T05:34:16.424Z,1016.35
2018-09-14T05:35:16.427Z,1016.43
2018-09-14T05:36:16.414Z,1016.46
2018-09-14T05:37:16.398Z,1016.41
2018-09-14T05:38:16.455Z,1016.40
2018-09-14T05:39:16.387Z,1016.46
2018-09-14T05:40:16.378Z,1016.45
2018-09-14T05:41:16.375Z,1016.48
2018-09-14T05:42:16.370Z,1016.48
2018-09-14T05:43:16.358Z,1016.47
2018-09-14T05:44:16.350Z,1016.50
2018-09-14T05:45:16.348Z,1016.50
2018-09-14T05:46:16.342Z,1016.52
2018-09-14T05:47:16.340Z,1016.50
2018-09-14T05:48:16.330Z,1016.55
2018-09-14T05:49:16.318Z,1016.59
2018-09-14T05:50:16.313Z,1016.62
2018-09-14T05:51:16.309Z,1016.62
2018-09-14T05:52:16.301Z,1016.66
2018-09-14T05:53:16.300Z,1016.67
2018-09-14T05:54:16.293Z,1016.68
2018-09-14T05:55:16.287Z,1016.74
2018-09-14T05:56:16.282Z,1016.76
2018-09-14T05:57:16.270Z,1016.80
2018-09-14T05:58:16.266Z,1016.75
2018-09-14T05:59:16.265Z,1016.83
2018-09-14T06:00:16.261Z,1016.82
2018-09-14T06:01:16.249Z,1016.86
2018-09-14T06:02:16.250Z,1016.87
2018-09-14T06:03:16.290Z,1016.86
2018-09-14T06:04:16.237Z,1016.87
2018-09-14T06:05:16.237Z,1016.94
2018-09-14T06:06:16.231Z,1016.95
2018-09-14T06:07:16.227Z,1016.94
2018-09-14T06:08:16.222Z,1017.00
2018-09-14T06:09:16.212Z,1017.06
2018-09-14T06:10:16.209Z,1017.09
2018-09-14T06:11:16.204Z,1017.09
2018-09-14T06:12:16.201Z,1017.09
2018-09-14T06:13:16.201Z,1017.10
2018-09-14T06:14:16.253Z,1017.12
2018-09-14T06:15:16.190Z,1017.10
2018-09-14T06:16:16.187Z,1017.12
2018-09-14T06:17:16.188Z,1017.17
2018-09-14T06:18:16.183Z,1017.17
2018-09-14T06:19:16.183Z,1017.26
2018-09-14T06:20:16.179Z,1017.24
2018-09-14T06:21:16.171Z,1017.23
2018-09-14T06:22:16.168Z,1017.32
2018-09-14T06:23:16.166Z,1017.32
2018-09-14T06:24:16.164Z,1017.38
2018-09-14T06:25:16.165Z,1017.43
2018-09-14T06:26:16.163Z,1017.42
2018-09-14T06:27:16.160Z,1017.46
2018-09-14T06:28:16.159Z,1017.45
2018-09-14T06:29:16.151Z,1017.45
2018-09-14T06:30:16.175Z,1017.48
2018-09-14T06:31:16.153Z,1017.45
2018-09-14T06:32:16.153Z,1017.49
2018-09-14T06:33:16.147Z,1017.46
2018-09-14T06:34:16.148Z,1017.50
2018-09-14T06:35:16.147Z,1017.50
2018-09-14T06:36:16.147Z,1017.52
2018-09-14T06:37:16.150Z,1017.54
2018-09-14T06:38:16.189Z,1017.56
2018-09-14T06:39:16.148Z,1017.62
2018-09-14T06:40:16.148Z,1017.54
2018-09-14T06:41:16.143Z,1017.56
2018-09-14T06:42:16.144Z,1017.62
2018-09-14T06:43:16.145Z,1017.59
2018-09-14T06:44:16.145Z,1017.63
2018-09-14T06:45:16.164Z,1017.65
2018-09-14T06:46:16.152Z,1017.67
2018-09-14T06:47:16.148Z,1017.66
2018-09-14T06:48:16.150Z,1017.68
2018-09-14T06:49:16.156Z,1017.70
2018-09-14T06:50:16.157Z,1017.74
2018-09-14T06:51:16.157Z,1017.79
2018-09-14T06:52:16.159Z,1017.73
2018-09-14T06:53:16.192Z,1017.75
2018-09-14T06:54:16.158Z,1017.77
2018-09-14T06:55:16.161Z,1017.74
2018-09-14T06:56:16.165Z,1017.80
2018-09-14T06:57:16.171Z,1017.18
2018-09-14T06:58:16.175Z,1017.18
2018-09-14T06:59:16.177Z,1017.19
2018-09-14T07:00:16.319Z,1017.16
2018-09-14T07:01:16.177Z,1017.15
2018-09-14T07:02:16.180Z,1017.17
2018-09-14T07:03:16.188Z,1017.17
2018-09-14T07:04:16.192Z,1017.16
2018-09-14T07:05:16.190Z,1017.16
2018-09-14T07:06:16.209Z,1017.15
2018-09-14T07:07:16.197Z,1017.13
2018-09-14T07:08:16.200Z,1017.17
2018-09-14T07:09:16.207Z,1017.21
2018-09-14T07:10:16.210Z,1017.17
2018-09-14T07:11:16.216Z,1017.17
2018-09-14T07:12:16.225Z,1017.15
2018-09-14T07:13:16.276Z,1017.15
2018-09-14T07:14:16.220Z,1017.22
2018-09-14T07:15:16.223Z,1017.20
2018-09-14T07:16:16.228Z,1017.22
2018-09-14T07:17:16.235Z,1017.28
2018-09-14T07:18:16.240Z,1017.23
2018-09-14T07:19:16.241Z,1017.26
2018-09-14T07:20:16.242Z,1017.29
2018-09-14T07:21:16.252Z,1017.33
2018-09-14T07:22:16.301Z,1017.31
2018-09-14T07:23:16.259Z,1017.35
2018-09-14T07:24:16.281Z,1017.41
2018-09-14T07:25:16.263Z,1017.39
2018-09-14T07:26:16.271Z,1017.39
2018-09-14T07:27:16.277Z,1017.45
2018-09-14T07:28:16.292Z,1017.46
2018-09-14T07:29:16.368Z,1017.49
2018-09-14T07:30:16.322Z,1017.49
2018-09-14T07:31:16.321Z,1017.54
2018-09-14T07:32:16.304Z,1017.52
2018-09-14T07:33:16.304Z,1017.53
2018-09-14T07:34:16.308Z,1017.54
2018-09-14T07:35:16.320Z,1017.58
2018-09-14T07:36:16.325Z,1017.58
2018-09-14T07:37:16.325Z,1017.67
2018-09-14T07:38:16.332Z,1017.61
2018-09-14T07:39:16.337Z,1017.61
2018-09-14T07:40:16.345Z,1017.64
2018-09-14T07:41:16.352Z,1017.63
2018-09-14T07:42:16.358Z,1017.61
2018-09-14T07:43:16.365Z,1017.63
2018-09-14T07:44:16.372Z,1017.60
2018-09-14T07:45:16.371Z,1017.59
2018-09-14T07:46:16.379Z,1017.62
2018-09-14T07:47:16.387Z,1017.60
2018-09-14T07:48:16.462Z,1017.63
2018-09-14T07:49:16.402Z,1017.65
2018-09-14T07:50:16.409Z,1017.63
2018-09-14T07:51:16.411Z,1017.62
2018-09-14T07:52:16.417Z,1017.65
2018-09-14T07:53:16.427Z,1017.63
2018-09-14T07:54:16.435Z,1017.64
2018-09-14T07:55:16.447Z,1017.65
2018-09-14T07:56:16.450Z,1017.64
2018-09-14T07:57:16.452Z,1017.69
2018-09-14T07:58:16.459Z,1017.72
2018-09-14T07:59:16.467Z,1017.72
2018-09-14T08:00:16.475Z,1017.75
2018-09-14T08:01:16.553Z,1017.78
2018-09-14T08:02:16.493Z,1017.75
2018-09-14T08:03:16.502Z,1017.79
2018-09-14T08:04:16.509Z,1017.81
2018-09-14T08:05:16.511Z,1017.82
2018-09-14T08:06:16.621Z,1017.82
2018-09-14T08:07:16.531Z,1017.80
2018-09-14T08:08:16.538Z,1017.83
2018-09-14T08:09:16.544Z,1017.87
2018-09-14T08:10:16.550Z,1017.87
2018-09-14T08:11:16.560Z,1017.83
2018-09-14T08:12:16.569Z,1017.88
2018-09-14T08:13:16.657Z,1017.88
2018-09-14T08:14:16.592Z,1017.90
2018-09-14T08:15:16.598Z,1017.92
2018-09-14T08:16:16.608Z,1017.95
2018-09-14T08:17:16.611Z,1017.95
2018-09-14T08:18:16.621Z,1017.99
2018-09-14T08:19:16.630Z,1017.98
2018-09-14T08:20:16.773Z,1017.98
2018-09-14T08:21:16.672Z,1017.99
2018-09-14T08:22:16.663Z,1017.95
2018-09-14T08:23:16.668Z,1017.93
2018-09-14T08:24:16.679Z,1017.98
2018-09-14T08:25:16.691Z,1017.91
2018-09-14T08:26:16.702Z,1017.96
2018-09-14T08:27:16.779Z,1017.96
2018-09-14T08:28:16.723Z,1018.03
2018-09-14T08:29:16.727Z,1018.00
2018-09-14T08:30:16.738Z,1018.06
2018-09-14T08:31:16.748Z,1018.06
2018-09-14T08:32:16.798Z,1018.04
2018-09-14T08:33:16.774Z,1018.03
2018-09-14T08:34:16.785Z,1018.07
2018-09-14T08:35:16.795Z,1018.08
2018-09-14T08:36:16.808Z,1018.08
2018-09-14T08:37:16.811Z,1018.07
2018-09-14T08:38:16.823Z,1018.07
2018-09-14T08:39:16.841Z,1018.09
2018-09-14T08:40:16.853Z,1018.05
2018-09-14T08:41:16.855Z,1018.08
2018-09-14T08:42:16.866Z,1018.10
2018-09-14T08:43:16.879Z,1018.12
2018-09-14T08:44:16.890Z,1018.12
2018-09-14T08:45:16.906Z,1018.14
2018-09-14T08:46:16.917Z,1018.11
2018-09-14T08:47:16.929Z,1018.16
2018-09-14T08:48:16.942Z,1018.21
2018-09-14T08:49:16.949Z,1018.15
2018-09-14T08:50:16.961Z,1018.20
2018-09-14T08:51:16.973Z,1018.23
2018-09-14T08:52:16.984Z,1018.18
2018-09-14T08:53:16.998Z,1018.20
2018-09-14T08:54:17.018Z,1018.21
2018-09-14T08:55:17.019Z,1018.25
2018-09-14T08:56:17.034Z,1018.24
2018-09-14T08:57:17.051Z,1018.25
2018-09-14T08:58:17.061Z,1018.29
2018-09-14T08:59:17.072Z,1018.35
2018-09-14T09:00:17.086Z,1018.32
2018-09-14T09:01:17.094Z,1018.33
2018-09-14T09:02:17.110Z,1018.33
2018-09-14T09:03:17.121Z,1018.29
2018-09-14T09:04:17.134Z,1018.33
2018-09-14T09:05:17.151Z,1018.31
2018-09-14T09:06:17.164Z,1018.36
2018-09-14T09:07:17.232Z,1018.37
2018-09-14T09:08:17.199Z,1018.35
2018-09-14T09:09:17.313Z,1018.38
2018-09-14T09:10:17.221Z,1018.39
2018-09-14T09:11:17.292Z,1018.42
2018-09-14T09:12:17.248Z,1018.40
2018-09-14T09:13:17.256Z,1018.41
2018-09-14T09:14:17.275Z,1018.37
2018-09-14T09:15:17.285Z,1018.41
2018-09-14T09:16:17.299Z,1018.35
2018-09-14T09:17:17.319Z,1018.39
2018-09-14T09:18:17.332Z,1018.41
2018-09-14T09:19:17.381Z,1018.41
2018-09-14T09:20:17.365Z,1018.41
2018-09-14T09:21:17.416Z,1018.45
2018-09-14T09:22:17.384Z,1018.48
2018-09-14T09:23:17.406Z,1018.43
2018-09-14T09:24:17.415Z,1018.46
2018-09-14T09:25:17.434Z,1018.51
2018-09-14T09:26:17.461Z,1018.49
2018-09-14T09:27:17.458Z,1018.48
2018-09-14T09:28:17.474Z,1018.54
2018-09-14T09:29:17.502Z,1018.55
2018-09-14T09:30:17.508Z,1018.56
2018-09-14T09:31:17.521Z,1018.49
2018-09-14T09:32:17.538Z,1018.53
2018-09-14T09:33:17.547Z,1018.50
2018-09-14T09:34:17.562Z,1018.47
2018-09-14T09:35:17.580Z,1018.47
2018-09-14T09:36:17.593Z,1018.49
2018-09-14T09:37:17.612Z,1018.51
2018-09-14T09:38:17.628Z,1018.53
2018-09-14T09:39:17.644Z,1018.51
2018-09-14T09:40:17.659Z,1018.51
2018-09-14T09:41:17.669Z,1018.48
2018-09-14T09:42:17.685Z,1018.44
2018-09-14T09:43:17.799Z,1018.38
2018-09-14T09:44:17.721Z,1018.23
2018-09-14T09:45:17.731Z,1018.17
2018-09-14T09:46:17.747Z,1018.17
2018-09-14T09:47:17.763Z,1018.15
2018-09-14T09:48:17.777Z,1018.14
2018-09-14T09:49:17.796Z,1018.14
2018-09-14T09:50:17.812Z,1018.11
2018-09-14T09:51:17.930Z,1018.12
2018-09-14T09:52:17.844Z,1018.07
2018-09-14T09:53:17.854Z,1018.08
2018-09-14T09:54:17.878Z,1018.09
2018-09-14T09:55:17.886Z,1017.98
2018-09-14T09:56:17.902Z,1018.09
2018-09-14T09:57:17.922Z,1018.07
2018-09-14T09:58:17.938Z,1018.04
2018-09-14T09:59:17.948Z,1018.01
2018-09-14T10:00:17.964Z,1018.05
2018-09-14T10:01:17.984Z,1018.00
2018-09-14T10:02:18.000Z,1017.96
2018-09-14T10:03:18.015Z,1017.91
2018-09-14T10:04:18.036Z,1017.96
2018-09-14T10:05:18.042Z,1017.92
2018-09-14T10:06:18.056Z,1017.86
2018-09-14T10:07:18.074Z,1017.87
2018-09-14T10:08:18.088Z,1017.94
2018-09-14T10:09:18.105Z,1017.90
2018-09-14T10:10:18.121Z,1017.93
2018-09-14T10:11:18.138Z,1017.96
2018-09-14T10:12:18.153Z,1017.97
2018-09-14T10:13:18.164Z,1017.94
2018-09-14T10:14:18.177Z,1017.91
2018-09-14T10:15:18.196Z,1017.94
2018-09-14T10:16:18.214Z,1017.93
2018-09-14T10:17:18.220Z,1017.93
2018-09-14T10:18:18.235Z,1017.90
2018-09-14T10:19:18.251Z,1017.93
2018-09-14T10:20:18.269Z,1017.92
2018-09-14T10:21:18.402Z,1017.90
2018-09-14T10:22:18.298Z,1017.89
2018-09-14T10:23:18.313Z,1017.82
2018-09-14T10:24:18.327Z,1017.89
2018-09-14T10:25:18.335Z,1017.91
2018-09-14T10:26:18.352Z,1017.93
2018-09-14T10:27:18.365Z,1017.86
2018-09-14T10:28:18.382Z,1017.87
2018-09-14T10:29:18.398Z,1017.86
2018-09-14T10:30:18.412Z,1017.85
2018-09-14T10:31:18.422Z,1017.90
2018-09-14T10:32:18.436Z,1017.81
2018-09-14T10:33:18.458Z,1017.79
2018-09-14T10:34:18.469Z,1017.76
2018-09-14T10:35:18.482Z,1017.74
2018-09-14T10:36:18.496Z,1017.71
2018-09-14T10:37:18.507Z,1017.70
2018-09-14T10:38:18.521Z,1017.71
2018-09-14T10:39:18.535Z,1017.71
2018-09-14T10:40:18.555Z,1017.67
2018-09-14T10:41:18.569Z,1017.66
2018-09-14T10:42:18.583Z,1017.61
2018-09-14T10:43:18.598Z,1017.68
2018-09-14T10:44:18.613Z,1017.62
2018-09-14T10:45:18.685Z,1017.62
2018-09-14T10:46:18.637Z,1017.64
2018-09-14T10:47:18.657Z,1017.61
2018-09-14T10:48:18.676Z,1017.60
2018-09-14T10:49:18.680Z,1017.59
2018-09-14T10:50:18.698Z,1017.61
2018-09-14T10:51:18.711Z,1017.53
2018-09-14T10:52:18.727Z,1017.52
2018-09-14T10:53:18.742Z,1017.50
2018-09-14T10:54:18.757Z,1017.53
2018-09-14T10:55:18.826Z,1017.54
2018-09-14T10:56:18.789Z,1017.59
2018-09-14T10:57:18.797Z,1017.58
2018-09-14T10:58:18.814Z,1017.42
2018-09-14T10:59:18.831Z,1017.53
2018-09-14T11:00:18.844Z,1017.55
2018-09-14T11:01:18.863Z,1017.53
2018-09-14T11:02:18.877Z,1017.35
2018-09-14T11:03:18.889Z,1017.35
2018-09-14T11:04:18.960Z,1017.26
2018-09-14T11:05:18.922Z,1017.27
2018-09-14T11:06:18.938Z,1017.22
2018-09-14T11:07:18.951Z,1017.25
2018-09-14T11:08:18.964Z,1017.37
2018-09-14T11:09:18.973Z,1017.21
2018-09-14T11:10:18.985Z,1017.36
2018-09-14T11:11:18.998Z,1017.14
2018-09-14T11:12:19.011Z,1017.22
2018-09-14T11:13:19.028Z,1017.33
2018-09-14T11:14:19.040Z,1017.17
2018-09-14T11:15:19.053Z,1017.28
2018-09-14T11:16:19.064Z,1017.28
2018-09-14T11:17:19.074Z,1017.28
2018-09-14T11:18:19.082Z,1017.14
2018-09-14T11:19:19.097Z,1017.12
2018-09-14T11:20:19.110Z,1016.96
2018-09-14T11:21:19.121Z,1016.94
2018-09-14T11:22:19.129Z,1016.96
2018-09-14T11:23:19.139Z,1016.93
2018-09-14T11:24:19.149Z,1016.94
2018-09-14T11:25:19.244Z,1016.87
2018-09-14T11:26:19.175Z,1016.80
2018-09-14T11:27:19.185Z,1016.81
2018-09-14T11:28:19.195Z,1016.79
2018-09-14T11:29:19.199Z,1016.75
2018-09-14T11:30:19.208Z,1016.82
2018-09-14T11:31:19.217Z,1016.83
2018-09-14T11:32:19.240Z,1016.77
2018-09-14T11:33:19.237Z,1016.74
2018-09-14T11:34:19.245Z,1016.68
2018-09-14T11:35:19.249Z,1016.77
2018-09-14T11:36:19.255Z,1016.71
2018-09-14T11:37:19.317Z,1016.73
2018-09-14T11:38:19.411Z,1016.69
2018-09-14T11:39:19.281Z,1016.68
2018-09-14T11:40:19.289Z,1016.67
2018-09-14T11:41:19.289Z,1016.69
2018-09-14T11:42:19.296Z,1016.66
2018-09-14T11:43:19.303Z,1016.63
2018-09-14T11:44:19.313Z,1016.58
2018-09-14T11:45:19.444Z,1016.53
2018-09-14T11:46:19.325Z,1016.51
2018-09-14T11:47:19.329Z,1016.50
2018-09-14T11:48:19.335Z,1016.51
2018-09-14T11:49:19.337Z,1016.56
2018-09-14T11:50:19.341Z,1016.52
2018-09-14T11:51:19.351Z,1016.45
2018-09-14T11:52:19.358Z,1016.41
2018-09-14T11:53:19.359Z,1016.44
2018-09-14T11:54:19.477Z,1016.38
2018-09-14T11:55:19.371Z,1016.37
2018-09-14T11:56:19.375Z,1016.29
2018-09-14T11:57:19.382Z,1016.33
2018-09-14T11:58:19.437Z,1016.34
2018-09-14T11:59:19.392Z,1016.33
2018-09-14T12:00:19.398Z,1016.34
2018-09-14T12:01:19.420Z,1016.33
2018-09-14T12:02:19.402Z,1016.29
2018-09-14T12:03:19.406Z,1016.30
2018-09-14T12:04:19.430Z,1016.33
2018-09-14T12:05:19.420Z,1016.24